AMX392 MMMX-MMBT
Flight info
| Callsign | AMX392 |
|---|---|
| Flight time | 0h 55m |
| Altitude | 35000 |
| Route | TEVOS2A TEVOS UT115 HUX |
| Aircraft | B738/M-SDE2E3FGHIRWXY/LB1 |
Departure
| Time | 2026-05-05 03:08 |
|---|---|
| Airport | Mexico City Benito Juárez International Airport (MMMX) |
Arrival
| Time | 2026-05-05 04:04 |
|---|---|
| Airport | Bahías de Huatulco International Airport (MMBT) |
| Time | Latitude | Longitude | Altitude | Speed | Heading |
|---|---|---|---|---|---|
| 2026-05-05 02:44 | 19.42133 | -99.08131 | 7302 ft | 0 kts | 211° |
| 2026-05-05 02:54 | 19.42140 | -99.08127 | 7302 ft | 3 kts | 218° |
| 2026-05-05 02:55 | 19.42152 | -99.08112 | 7302 ft | 3 kts | 258° |
| 2026-05-05 02:55 | 19.42151 | -99.08092 | 7302 ft | 3 kts | 291° |
| 2026-05-05 02:55 | 19.42144 | -99.08077 | 7302 ft | 0 kts | 301° |
| 2026-05-05 02:59 | 19.42151 | -99.08089 | 7302 ft | 4 kts | 301° |
| 2026-05-05 02:59 | 19.42175 | -99.08132 | 7302 ft | 9 kts | 301° |
| 2026-05-05 02:59 | 19.42220 | -99.08197 | 7302 ft | 12 kts | 326° |
| 2026-05-05 02:59 | 19.42300 | -99.08201 | 7302 ft | 11 kts | 4° |
| 2026-05-05 03:00 | 19.42378 | -99.08203 | 7302 ft | 11 kts | 342° |
| 2026-05-05 03:00 | 19.42445 | -99.08242 | 7302 ft | 11 kts | 330° |
| 2026-05-05 03:00 | 19.42510 | -99.08281 | 7302 ft | 11 kts | 332° |
| 2026-05-05 03:00 | 19.42562 | -99.08332 | 7302 ft | 10 kts | 297° |
| 2026-05-05 03:01 | 19.42591 | -99.08402 | 7302 ft | 11 kts | 293° |
| 2026-05-05 03:01 | 19.42623 | -99.08482 | 7302 ft | 7 kts | 294° |
| 2026-05-05 03:01 | 19.42627 | -99.08489 | 7302 ft | 0 kts | 294° |
| 2026-05-05 03:02 | 19.42630 | -99.08497 | 7302 ft | 3 kts | 294° |
| 2026-05-05 03:02 | 19.42645 | -99.08533 | 7302 ft | 8 kts | 294° |
| 2026-05-05 03:02 | 19.42663 | -99.08575 | 7302 ft | 10 kts | 292° |
| 2026-05-05 03:02 | 19.42675 | -99.08657 | 7304 ft | 13 kts | 274° |
| 2026-05-05 03:03 | 19.42683 | -99.08773 | 7302 ft | 17 kts | 274° |
| 2026-05-05 03:03 | 19.42691 | -99.08890 | 7302 ft | 14 kts | 274° |
| 2026-05-05 03:03 | 19.42694 | -99.08927 | 7302 ft | 0 kts | 273° |
| 2026-05-05 03:05 | 19.42694 | -99.08940 | 7302 ft | 4 kts | 273° |
| 2026-05-05 03:05 | 19.42696 | -99.08990 | 7302 ft | 9 kts | 272° |
| 2026-05-05 03:05 | 19.42721 | -99.09058 | 7302 ft | 11 kts | 339° |
| 2026-05-05 03:05 | 19.42767 | -99.09034 | 7302 ft | 3 kts | 57° |
| 2026-05-05 03:06 | 19.42767 | -99.09033 | 7302 ft | 0 kts | 58° |
| 2026-05-05 03:07 | 19.42768 | -99.09032 | 7302 ft | 2 kts | 58° |
| 2026-05-05 03:07 | 19.42836 | -99.08912 | 7302 ft | 47 kts | 59° |
| 2026-05-05 03:08 | 19.43112 | -99.08423 | 7300 ft | 106 kts | 59° |
| 2026-05-05 03:08 | 19.43580 | -99.07588 | 7303 ft | 156 kts | 59° |
| 2026-05-05 03:08 | 19.44204 | -99.06479 | 7415 ft | 187 kts | 59° |
| 2026-05-05 03:08 | 19.44882 | -99.05324 | 8116 ft | 186 kts | 61° |
| 2026-05-05 03:09 | 19.45559 | -99.04125 | 8704 ft | 192 kts | 63° |
| 2026-05-05 03:09 | 19.46250 | -99.02873 | 9171 ft | 205 kts | 62° |
| 2026-05-05 03:09 | 19.47008 | -99.01505 | 9309 ft | 225 kts | 59° |
| 2026-05-05 03:09 | 19.47836 | -99.00027 | 9462 ft | 242 kts | 59° |
| 2026-05-05 03:10 | 19.48724 | -98.98440 | 9600 ft | 259 kts | 59° |
| 2026-05-05 03:10 | 19.49577 | -98.96700 | 9777 ft | 273 kts | 73° |
| 2026-05-05 03:10 | 19.49667 | -98.94685 | 10140 ft | 280 kts | 103° |
| 2026-05-05 03:10 | 19.48839 | -98.92848 | 10688 ft | 284 kts | 130° |
| 2026-05-05 03:11 | 19.47376 | -98.91459 | 11402 ft | 283 kts | 145° |
| 2026-05-05 03:11 | 19.45714 | -98.90302 | 12012 ft | 288 kts | 148° |
| 2026-05-05 03:11 | 19.44002 | -98.89182 | 12668 ft | 291 kts | 149° |
| 2026-05-05 03:11 | 19.42275 | -98.88048 | 13319 ft | 293 kts | 148° |
| 2026-05-05 03:12 | 19.40550 | -98.86889 | 13966 ft | 295 kts | 147° |
| 2026-05-05 03:12 | 19.38815 | -98.85705 | 14571 ft | 298 kts | 147° |
| 2026-05-05 03:12 | 19.37069 | -98.84503 | 15161 ft | 301 kts | 146° |
| 2026-05-05 03:12 | 19.35307 | -98.83287 | 15788 ft | 304 kts | 146° |
| 2026-05-05 03:13 | 19.33449 | -98.82196 | 16435 ft | 308 kts | 163° |
| 2026-05-05 03:13 | 19.31308 | -98.81861 | 16787 ft | 320 kts | 180° |
| 2026-05-05 03:13 | 19.29007 | -98.81980 | 16939 ft | 341 kts | 184° |
| 2026-05-05 03:13 | 19.26625 | -98.82170 | 17050 ft | 356 kts | 184° |
| 2026-05-05 03:14 | 19.24094 | -98.82370 | 17170 ft | 373 kts | 183° |
| 2026-05-05 03:14 | 19.21448 | -98.82554 | 17290 ft | 388 kts | 183° |
| 2026-05-05 03:14 | 19.18714 | -98.82727 | 17575 ft | 398 kts | 182° |
| 2026-05-05 03:14 | 19.15932 | -98.82889 | 18001 ft | 402 kts | 182° |
| 2026-05-05 03:15 | 19.13129 | -98.83051 | 18468 ft | 405 kts | 182° |
| 2026-05-05 03:15 | 19.10312 | -98.83215 | 18986 ft | 407 kts | 182° |
| 2026-05-05 03:15 | 19.07479 | -98.83382 | 19478 ft | 409 kts | 182° |
| 2026-05-05 03:15 | 19.04617 | -98.83551 | 19921 ft | 413 kts | 182° |
| 2026-05-05 03:16 | 19.01742 | -98.83720 | 20360 ft | 416 kts | 182° |
| 2026-05-05 03:16 | 18.98840 | -98.83892 | 20786 ft | 419 kts | 182° |
| 2026-05-05 03:16 | 18.95928 | -98.84064 | 21215 ft | 421 kts | 182° |
| 2026-05-05 03:16 | 18.92989 | -98.84275 | 21587 ft | 425 kts | 185° |
| 2026-05-05 03:17 | 18.90043 | -98.84677 | 21965 ft | 428 kts | 187° |
| 2026-05-05 03:17 | 18.87086 | -98.85177 | 22365 ft | 431 kts | 188° |
| 2026-05-05 03:17 | 18.84116 | -98.85701 | 22736 ft | 433 kts | 188° |
| 2026-05-05 03:17 | 18.81125 | -98.86219 | 23049 ft | 437 kts | 188° |
| 2026-05-05 03:18 | 18.78113 | -98.86722 | 23386 ft | 440 kts | 187° |
| 2026-05-05 03:18 | 18.75081 | -98.87215 | 23739 ft | 441 kts | 187° |
| 2026-05-05 03:18 | 18.72077 | -98.87695 | 24078 ft | 443 kts | 187° |
| 2026-05-05 03:18 | 18.68978 | -98.88187 | 24401 ft | 446 kts | 187° |
| 2026-05-05 03:19 | 18.62859 | -98.89160 | 25041 ft | 449 kts | 187° |
| 2026-05-05 03:19 | 18.59759 | -98.89656 | 25357 ft | 451 kts | 187° |
| 2026-05-05 03:19 | 18.56645 | -98.90160 | 25655 ft | 453 kts | 187° |
| 2026-05-05 03:20 | 18.53523 | -98.90666 | 25959 ft | 455 kts | 187° |
| 2026-05-05 03:20 | 18.50387 | -98.91174 | 26269 ft | 457 kts | 187° |
| 2026-05-05 03:20 | 18.47240 | -98.91683 | 26555 ft | 459 kts | 187° |
| 2026-05-05 03:20 | 18.44063 | -98.91822 | 26775 ft | 458 kts | 171° |
| 2026-05-05 03:21 | 18.40984 | -98.91024 | 27066 ft | 455 kts | 155° |
| 2026-05-05 03:21 | 18.38229 | -98.89413 | 27380 ft | 453 kts | 145° |
| 2026-05-05 03:21 | 18.35598 | -98.87571 | 27644 ft | 454 kts | 144° |
| 2026-05-05 03:21 | 18.32981 | -98.85692 | 27877 ft | 457 kts | 144° |
| 2026-05-05 03:22 | 18.30352 | -98.83799 | 28114 ft | 459 kts | 144° |
| 2026-05-05 03:22 | 18.27710 | -98.81910 | 28379 ft | 460 kts | 144° |
| 2026-05-05 03:22 | 18.25043 | -98.80021 | 28634 ft | 461 kts | 144° |
| 2026-05-05 03:22 | 18.22374 | -98.78146 | 28874 ft | 462 kts | 144° |
| 2026-05-05 03:23 | 18.19686 | -98.76267 | 29101 ft | 464 kts | 144° |
| 2026-05-05 03:23 | 18.16991 | -98.74390 | 29328 ft | 465 kts | 144° |
| 2026-05-05 03:23 | 18.14287 | -98.72508 | 29561 ft | 467 kts | 144° |
| 2026-05-05 03:23 | 18.11605 | -98.70643 | 29767 ft | 468 kts | 144° |
| 2026-05-05 03:24 | 18.08888 | -98.68754 | 29994 ft | 469 kts | 144° |
| 2026-05-05 03:24 | 18.06170 | -98.66866 | 30280 ft | 468 kts | 144° |
| 2026-05-05 03:24 | 18.03459 | -98.64982 | 30592 ft | 467 kts | 145° |
| 2026-05-05 03:24 | 18.00748 | -98.63098 | 30841 ft | 468 kts | 145° |
| 2026-05-05 03:25 | 17.98033 | -98.61212 | 31063 ft | 469 kts | 145° |
| 2026-05-05 03:25 | 17.95313 | -98.59323 | 31351 ft | 468 kts | 145° |
| 2026-05-05 03:25 | 17.92598 | -98.57438 | 31639 ft | 468 kts | 145° |
| 2026-05-05 03:25 | 17.89875 | -98.55547 | 31860 ft | 469 kts | 145° |
| 2026-05-05 03:26 | 17.87148 | -98.53656 | 32086 ft | 470 kts | 146° |
| 2026-05-05 03:26 | 17.84414 | -98.51760 | 32371 ft | 469 kts | 146° |
| 2026-05-05 03:26 | 17.81691 | -98.49872 | 32620 ft | 470 kts | 146° |
| 2026-05-05 03:26 | 17.78961 | -98.47981 | 32838 ft | 471 kts | 146° |
| 2026-05-05 03:27 | 17.76226 | -98.46087 | 33041 ft | 472 kts | 146° |
| 2026-05-05 03:27 | 17.73522 | -98.44214 | 33321 ft | 471 kts | 146° |
| 2026-05-05 03:27 | 17.70789 | -98.42323 | 33587 ft | 471 kts | 147° |
| 2026-05-05 03:27 | 17.68051 | -98.40429 | 33788 ft | 472 kts | 147° |
| 2026-05-05 03:28 | 17.65311 | -98.38533 | 34003 ft | 473 kts | 147° |
| 2026-05-05 03:28 | 17.62565 | -98.36634 | 34247 ft | 473 kts | 147° |
| 2026-05-05 03:28 | 17.59823 | -98.34739 | 34534 ft | 471 kts | 147° |
| 2026-05-05 03:28 | 17.57088 | -98.32850 | 34779 ft | 471 kts | 147° |
| 2026-05-05 03:29 | 17.54347 | -98.30957 | 35013 ft | 471 kts | 147° |
| 2026-05-05 03:29 | 17.51605 | -98.29063 | 35112 ft | 474 kts | 147° |
| 2026-05-05 03:29 | 17.46089 | -98.25258 | 35108 ft | 473 kts | 147° |
| 2026-05-05 03:30 | 17.40610 | -98.21479 | 35107 ft | 469 kts | 147° |
| 2026-05-05 03:30 | 17.35183 | -98.17740 | 35093 ft | 465 kts | 147° |
| 2026-05-05 03:31 | 17.29787 | -98.14024 | 35101 ft | 463 kts | 147° |
| 2026-05-05 03:31 | 17.24404 | -98.10320 | 35103 ft | 463 kts | 147° |
| 2026-05-05 03:32 | 17.19028 | -98.06624 | 35111 ft | 463 kts | 147° |
| 2026-05-05 03:32 | 17.13628 | -98.02914 | 35121 ft | 465 kts | 147° |
| 2026-05-05 03:33 | 17.08205 | -97.99190 | 35111 ft | 467 kts | 147° |
| 2026-05-05 03:33 | 17.02766 | -97.95457 | 35109 ft | 466 kts | 147° |
| 2026-05-05 03:34 | 16.97392 | -97.91772 | 35102 ft | 458 kts | 147° |
| 2026-05-05 03:34 | 16.92114 | -97.88155 | 35112 ft | 457 kts | 147° |
| 2026-05-05 03:35 | 16.86842 | -97.84415 | 34924 ft | 458 kts | 144° |
| 2026-05-05 03:35 | 16.84286 | -97.82454 | 34641 ft | 452 kts | 143° |
| 2026-05-05 03:35 | 16.81780 | -97.80495 | 34218 ft | 449 kts | 143° |
| 2026-05-05 03:36 | 16.79294 | -97.78545 | 33804 ft | 445 kts | 143° |
| 2026-05-05 03:36 | 16.76829 | -97.76618 | 33387 ft | 441 kts | 143° |
| 2026-05-05 03:36 | 16.74373 | -97.74710 | 32986 ft | 438 kts | 143° |
| 2026-05-05 03:36 | 16.71930 | -97.72820 | 32581 ft | 435 kts | 142° |
| 2026-05-05 03:37 | 16.69506 | -97.70951 | 32187 ft | 432 kts | 142° |
| 2026-05-05 03:37 | 16.67097 | -97.69098 | 31793 ft | 429 kts | 142° |
| 2026-05-05 03:37 | 16.64708 | -97.67261 | 31392 ft | 425 kts | 142° |
| 2026-05-05 03:37 | 16.62334 | -97.65438 | 30992 ft | 422 kts | 142° |
| 2026-05-05 03:38 | 16.59978 | -97.63629 | 30587 ft | 419 kts | 141° |
| 2026-05-05 03:38 | 16.57637 | -97.61831 | 30188 ft | 416 kts | 141° |
| 2026-05-05 03:38 | 16.55315 | -97.60048 | 29791 ft | 413 kts | 141° |
| 2026-05-05 03:38 | 16.53010 | -97.58279 | 29391 ft | 410 kts | 141° |
| 2026-05-05 03:39 | 16.50721 | -97.56522 | 28991 ft | 407 kts | 141° |
| 2026-05-05 03:39 | 16.48447 | -97.54778 | 28567 ft | 405 kts | 141° |
| 2026-05-05 03:39 | 16.46191 | -97.53047 | 28175 ft | 401 kts | 141° |
| 2026-05-05 03:39 | 16.43950 | -97.51329 | 27774 ft | 398 kts | 141° |
| 2026-05-05 03:40 | 16.41723 | -97.49622 | 27389 ft | 396 kts | 141° |
| 2026-05-05 03:40 | 16.39511 | -97.47927 | 26983 ft | 393 kts | 141° |
| 2026-05-05 03:40 | 16.37323 | -97.46250 | 26605 ft | 389 kts | 141° |
| 2026-05-05 03:40 | 16.35145 | -97.44582 | 26214 ft | 387 kts | 141° |
| 2026-05-05 03:41 | 16.32988 | -97.42931 | 25820 ft | 384 kts | 141° |
| 2026-05-05 03:41 | 16.30841 | -97.41288 | 25445 ft | 381 kts | 141° |
| 2026-05-05 03:41 | 16.28710 | -97.39657 | 25063 ft | 379 kts | 141° |
| 2026-05-05 03:41 | 16.26591 | -97.38035 | 24679 ft | 377 kts | 141° |
| 2026-05-05 03:42 | 16.24486 | -97.36426 | 24298 ft | 374 kts | 141° |
| 2026-05-05 03:42 | 16.22396 | -97.34828 | 23926 ft | 372 kts | 140° |
| 2026-05-05 03:42 | 16.20345 | -97.33260 | 23560 ft | 369 kts | 140° |
| 2026-05-05 03:42 | 16.18283 | -97.31684 | 23191 ft | 366 kts | 140° |
| 2026-05-05 03:43 | 16.16234 | -97.30118 | 22815 ft | 364 kts | 141° |
| 2026-05-05 03:43 | 16.14198 | -97.28563 | 22450 ft | 362 kts | 140° |
| 2026-05-05 03:43 | 16.12179 | -97.27021 | 22078 ft | 359 kts | 141° |
| 2026-05-05 03:43 | 16.10174 | -97.25490 | 21721 ft | 356 kts | 141° |
| 2026-05-05 03:44 | 16.08181 | -97.23968 | 21363 ft | 354 kts | 141° |
| 2026-05-05 03:44 | 16.06201 | -97.22457 | 21010 ft | 352 kts | 141° |
| 2026-05-05 03:44 | 16.04233 | -97.20955 | 20637 ft | 350 kts | 140° |
| 2026-05-05 03:44 | 16.02273 | -97.19459 | 20282 ft | 347 kts | 140° |
| 2026-05-05 03:45 | 16.00344 | -97.17977 | 19926 ft | 342 kts | 140° |
| 2026-05-05 03:45 | 15.98433 | -97.16518 | 19577 ft | 340 kts | 140° |
| 2026-05-05 03:45 | 15.96527 | -97.15072 | 19253 ft | 338 kts | 140° |
| 2026-05-05 03:45 | 15.94632 | -97.13632 | 18931 ft | 335 kts | 141° |
| 2026-05-05 03:46 | 15.93393 | -97.12690 | 18733 ft | 333 kts | 140° |
| 2026-05-05 03:46 | 15.91528 | -97.11271 | 18405 ft | 330 kts | 140° |
| 2026-05-05 03:46 | 15.89114 | -97.09380 | 17960 ft | 325 kts | 133° |
| 2026-05-05 03:46 | 15.87787 | -97.07537 | 17687 ft | 315 kts | 113° |
| 2026-05-05 03:47 | 15.87265 | -97.06116 | 17516 ft | 310 kts | 101° |
| 2026-05-05 03:47 | 15.86894 | -97.03899 | 17289 ft | 314 kts | 95° |
| 2026-05-05 03:47 | 15.86631 | -97.01650 | 17056 ft | 320 kts | 94° |
| 2026-05-05 03:47 | 15.86385 | -96.99312 | 16810 ft | 322 kts | 94° |
| 2026-05-05 03:48 | 15.86146 | -96.97044 | 16505 ft | 319 kts | 94° |
| 2026-05-05 03:48 | 15.85898 | -96.94760 | 16172 ft | 317 kts | 95° |
| 2026-05-05 03:48 | 15.85646 | -96.92496 | 15839 ft | 314 kts | 95° |
| 2026-05-05 03:48 | 15.85391 | -96.90246 | 15498 ft | 313 kts | 95° |
| 2026-05-05 03:49 | 15.85134 | -96.88013 | 15168 ft | 311 kts | 95° |
| 2026-05-05 03:49 | 15.84876 | -96.85791 | 14832 ft | 309 kts | 95° |
| 2026-05-05 03:49 | 15.84619 | -96.83579 | 14501 ft | 307 kts | 95° |
| 2026-05-05 03:49 | 15.84361 | -96.81381 | 14165 ft | 306 kts | 95° |
| 2026-05-05 03:50 | 15.84105 | -96.79193 | 13835 ft | 304 kts | 94° |
| 2026-05-05 03:50 | 15.83850 | -96.77018 | 13508 ft | 303 kts | 95° |
| 2026-05-05 03:50 | 15.83596 | -96.74852 | 13173 ft | 302 kts | 95° |
| 2026-05-05 03:50 | 15.83342 | -96.72695 | 12844 ft | 300 kts | 94° |
| 2026-05-05 03:51 | 15.83088 | -96.70547 | 12512 ft | 299 kts | 94° |
| 2026-05-05 03:51 | 15.82836 | -96.68409 | 12191 ft | 298 kts | 94° |
| 2026-05-05 03:51 | 15.82585 | -96.66281 | 11853 ft | 296 kts | 94° |
| 2026-05-05 03:51 | 15.82337 | -96.64188 | 11532 ft | 295 kts | 94° |
| 2026-05-05 03:52 | 15.82087 | -96.62074 | 11183 ft | 295 kts | 95° |
| 2026-05-05 03:52 | 15.81838 | -96.59966 | 10850 ft | 294 kts | 95° |
| 2026-05-05 03:52 | 15.81781 | -96.59490 | 10774 ft | 294 kts | 95° |
| 2026-05-05 03:52 | 15.81532 | -96.57386 | 10442 ft | 293 kts | 95° |
| 2026-05-05 03:53 | 15.81286 | -96.55307 | 10252 ft | 286 kts | 95° |
| 2026-05-05 03:53 | 15.81045 | -96.53285 | 10092 ft | 279 kts | 96° |
| 2026-05-05 03:53 | 15.80810 | -96.51318 | 9922 ft | 272 kts | 96° |
| 2026-05-05 03:53 | 15.80579 | -96.49368 | 9638 ft | 271 kts | 96° |
| 2026-05-05 03:54 | 15.80349 | -96.47431 | 9362 ft | 270 kts | 96° |
| 2026-05-05 03:54 | 15.80119 | -96.45498 | 9076 ft | 269 kts | 97° |
| 2026-05-05 03:54 | 15.79889 | -96.43572 | 8786 ft | 269 kts | 97° |
| 2026-05-05 03:54 | 15.79659 | -96.41645 | 8499 ft | 268 kts | 97° |
| 2026-05-05 03:55 | 15.79431 | -96.39725 | 8204 ft | 268 kts | 97° |
| 2026-05-05 03:55 | 15.79201 | -96.37801 | 7925 ft | 268 kts | 97° |
| 2026-05-05 03:55 | 15.78972 | -96.35886 | 7637 ft | 267 kts | 97° |
| 2026-05-05 03:55 | 15.78745 | -96.33993 | 7349 ft | 267 kts | 97° |
| 2026-05-05 03:56 | 15.78518 | -96.32084 | 7063 ft | 266 kts | 97° |
| 2026-05-05 03:56 | 15.78289 | -96.30173 | 6777 ft | 266 kts | 96° |
| 2026-05-05 03:56 | 15.78061 | -96.28267 | 6490 ft | 265 kts | 97° |
| 2026-05-05 03:56 | 15.77829 | -96.26359 | 6203 ft | 266 kts | 97° |
| 2026-05-05 03:57 | 15.77476 | -96.24476 | 5913 ft | 266 kts | 103° |
| 2026-05-05 03:57 | 15.77005 | -96.22618 | 5622 ft | 266 kts | 105° |
| 2026-05-05 03:57 | 15.76520 | -96.20767 | 5343 ft | 265 kts | 105° |
| 2026-05-05 03:57 | 15.76045 | -96.18919 | 5062 ft | 265 kts | 104° |
| 2026-05-05 03:58 | 15.75578 | -96.17069 | 4788 ft | 264 kts | 104° |
| 2026-05-05 03:58 | 15.75120 | -96.15235 | 4627 ft | 258 kts | 104° |
| 2026-05-05 03:58 | 15.74680 | -96.13463 | 4501 ft | 248 kts | 105° |
| 2026-05-05 03:58 | 15.74261 | -96.11779 | 4414 ft | 231 kts | 105° |
| 2026-05-05 03:59 | 15.73996 | -96.10206 | 4279 ft | 214 kts | 83° |
| 2026-05-05 03:59 | 15.74504 | -96.08821 | 4242 ft | 206 kts | 52° |
| 2026-05-05 03:59 | 15.75614 | -96.07878 | 4066 ft | 212 kts | 21° |
| 2026-05-05 03:59 | 15.77042 | -96.07668 | 3850 ft | 213 kts | 349° |
| 2026-05-05 04:00 | 15.78356 | -96.08282 | 3615 ft | 206 kts | 316° |
| 2026-05-05 04:00 | 15.79140 | -96.09462 | 3393 ft | 196 kts | 288° |
| 2026-05-05 04:00 | 15.79333 | -96.10819 | 3163 ft | 187 kts | 266° |
| 2026-05-05 04:00 | 15.79236 | -96.12160 | 2875 ft | 185 kts | 265° |
| 2026-05-05 04:01 | 15.79157 | -96.13470 | 2674 ft | 178 kts | 264° |
| 2026-05-05 04:01 | 15.79036 | -96.14724 | 2435 ft | 171 kts | 263° |
| 2026-05-05 04:01 | 15.78892 | -96.15942 | 2084 ft | 170 kts | 262° |
| 2026-05-05 04:01 | 15.78752 | -96.17162 | 1845 ft | 168 kts | 266° |
| 2026-05-05 04:02 | 15.78715 | -96.18309 | 1879 ft | 155 kts | 267° |
| 2026-05-05 04:02 | 15.78647 | -96.19379 | 1779 ft | 147 kts | 264° |
| 2026-05-05 04:02 | 15.78539 | -96.20418 | 1498 ft | 144 kts | 262° |
| 2026-05-05 04:02 | 15.78391 | -96.21432 | 1228 ft | 142 kts | 260° |
| 2026-05-05 04:03 | 15.78211 | -96.22454 | 1004 ft | 144 kts | 258° |
| 2026-05-05 04:03 | 15.78022 | -96.23481 | 780 ft | 146 kts | 259° |
| 2026-05-05 04:03 | 15.77840 | -96.24518 | 601 ft | 145 kts | 259° |
| 2026-05-05 04:03 | 15.77660 | -96.25523 | 511 ft | 127 kts | 259° |
| 2026-05-05 04:04 | 15.77536 | -96.26205 | 508 ft | 64 kts | 259° |
| 2026-05-05 04:04 | 15.77476 | -96.26534 | 507 ft | 40 kts | 259° |
| 2026-05-05 04:04 | 15.77428 | -96.26801 | 507 ft | 36 kts | 259° |
| 2026-05-05 04:04 | 15.77383 | -96.27045 | 509 ft | 32 kts | 259° |
| 2026-05-05 04:05 | 15.77344 | -96.27258 | 509 ft | 29 kts | 259° |
| 2026-05-05 04:05 | 15.77278 | -96.27399 | 509 ft | 18 kts | 213° |
| 2026-05-05 04:05 | 15.77283 | -96.27478 | 508 ft | 14 kts | 360° |
| 2026-05-05 04:05 | 15.77320 | -96.27396 | 509 ft | 13 kts | 79° |
| 2026-05-05 04:06 | 15.77337 | -96.27302 | 509 ft | 14 kts | 79° |
| 2026-05-05 04:06 | 15.77356 | -96.27193 | 509 ft | 17 kts | 79° |
| 2026-05-05 04:06 | 15.77382 | -96.27054 | 509 ft | 23 kts | 79° |
| 2026-05-05 04:06 | 15.77416 | -96.26869 | 508 ft | 29 kts | 79° |
| 2026-05-05 04:07 | 15.77456 | -96.26654 | 508 ft | 30 kts | 79° |
| 2026-05-05 04:07 | 15.77451 | -96.26456 | 507 ft | 25 kts | 110° |
| 2026-05-05 04:07 | 15.77397 | -96.26300 | 508 ft | 20 kts | 110° |
| 2026-05-05 04:07 | 15.77355 | -96.26181 | 508 ft | 16 kts | 110° |
| 2026-05-05 04:08 | 15.77331 | -96.26080 | 508 ft | 14 kts | 84° |
| 2026-05-05 04:08 | 15.77342 | -96.25999 | 508 ft | 9 kts | 82° |
| 2026-05-05 04:08 | 15.77322 | -96.25976 | 508 ft | 5 kts | 181° |
| 2026-05-05 04:08 | 15.77290 | -96.25977 | 508 ft | 4 kts | 174° |
| 2026-05-05 04:09 | 15.77272 | -96.25973 | 508 ft | 2 kts | 169° |
| 2026-05-05 04:09 | 15.77268 | -96.25972 | 508 ft | 0 kts | 169° |